sensor_id;sensor_type;location;lat;lon;timestamp;P1;durP1;ratioP1;P2;durP2;ratioP2
3068;SDS011;1545;51.728;8.796;2023-03-26T00:01:27;18.10;;;6.93;;
3068;SDS011;1545;51.728;8.796;2023-03-26T00:03:57;19.03;;;6.93;;
3068;SDS011;1545;51.728;8.796;2023-03-26T00:06:25;14.13;;;6.00;;
3068;SDS011;1545;51.728;8.796;2023-03-26T00:08:52;15.17;;;5.27;;
3068;SDS011;1545;51.728;8.796;2023-03-26T00:11:20;13.03;;;5.07;;
3068;SDS011;1545;51.728;8.796;2023-03-26T00:13:46;10.37;;;4.90;;
3068;SDS011;1545;51.728;8.796;2023-03-26T00:16:13;10.33;;;4.60;;
3068;SDS011;1545;51.728;8.796;2023-03-26T00:18:41;10.70;;;4.50;;
3068;SDS011;1545;51.728;8.796;2023-03-26T00:21:07;10.83;;;4.50;;
3068;SDS011;1545;51.728;8.796;2023-03-26T00:23:36;9.10;;;3.83;;
3068;SDS011;1545;51.728;8.796;2023-03-26T00:26:03;11.60;;;4.30;;
3068;SDS011;1545;51.728;8.796;2023-03-26T00:28:34;11.53;;;4.20;;
3068;SDS011;1545;51.728;8.796;2023-03-26T00:31:01;9.87;;;4.27;;
3068;SDS011;1545;51.728;8.796;2023-03-26T00:33:28;11.70;;;4.40;;
3068;SDS011;1545;51.728;8.796;2023-03-26T00:35:56;12.30;;;5.20;;
3068;SDS011;1545;51.728;8.796;2023-03-26T00:38:25;12.50;;;5.07;;
3068;SDS011;1545;51.728;8.796;2023-03-26T00:40:52;13.30;;;4.93;;
3068;SDS011;1545;51.728;8.796;2023-03-26T00:43:18;10.53;;;4.97;;
3068;SDS011;1545;51.728;8.796;2023-03-26T00:45:46;15.17;;;5.40;;
3068;SDS011;1545;51.728;8.796;2023-03-26T00:48:19;13.73;;;5.33;;
3068;SDS011;1545;51.728;8.796;2023-03-26T00:50:46;13.13;;;5.37;;
3068;SDS011;1545;51.728;8.796;2023-03-26T00:53:13;13.03;;;6.17;;
3068;SDS011;1545;51.728;8.796;2023-03-26T00:55:40;12.20;;;5.57;;
3068;SDS011;1545;51.728;8.796;2023-03-26T00:58:08;10.53;;;5.60;;
3068;SDS011;1545;51.728;8.796;2023-03-26T01:00:35;9.37;;;4.97;;
3068;SDS011;1545;51.728;8.796;2023-03-26T01:03:03;18.17;;;5.50;;
3068;SDS011;1545;51.728;8.796;2023-03-26T01:05:39;11.10;;;5.70;;
3068;SDS011;1545;51.728;8.796;2023-03-26T01:08:12;10.67;;;5.30;;
3068;SDS011;1545;51.728;8.796;2023-03-26T01:10:46;8.10;;;5.47;;
3068;SDS011;1545;51.728;8.796;2023-03-26T01:13:17;14.80;;;6.23;;
3068;SDS011;1545;51.728;8.796;2023-03-26T01:15:45;9.07;;;5.20;;
3068;SDS011;1545;51.728;8.796;2023-03-26T01:18:15;10.30;;;5.67;;
3068;SDS011;1545;51.728;8.796;2023-03-26T01:20:43;10.27;;;5.80;;
3068;SDS011;1545;51.728;8.796;2023-03-26T01:23:14;11.67;;;6.00;;
3068;SDS011;1545;51.728;8.796;2023-03-26T01:25:47;11.73;;;5.90;;
3068;SDS011;1545;51.728;8.796;2023-03-26T01:28:34;14.90;;;7.10;;
3068;SDS011;1545;51.728;8.796;2023-03-26T01:31:04;16.40;;;7.03;;
3068;SDS011;1545;51.728;8.796;2023-03-26T01:33:45;15.83;;;6.77;;
3068;SDS011;1545;51.728;8.796;2023-03-26T01:36:23;21.43;;;7.57;;
3068;SDS011;1545;51.728;8.796;2023-03-26T01:42:06;16.97;;;7.70;;
3068;SDS011;1545;51.728;8.796;2023-03-26T01:44:37;16.00;;;7.60;;
3068;SDS011;1545;51.728;8.796;2023-03-26T01:47:09;18.37;;;7.33;;
3068;SDS011;1545;51.728;8.796;2023-03-26T01:49:37;16.30;;;6.73;;
3068;SDS011;1545;51.728;8.796;2023-03-26T01:52:05;17.07;;;7.30;;
3068;SDS011;1545;51.728;8.796;2023-03-26T01:54:38;13.43;;;7.40;;
3068;SDS011;1545;51.728;8.796;2023-03-26T02:00:01;15.20;;;6.90;;
3068;SDS011;1545;51.728;8.796;2023-03-26T02:05:33;18.10;;;7.27;;
3068;SDS011;1545;51.728;8.796;2023-03-26T02:08:09;16.10;;;8.37;;
3068;SDS011;1545;51.728;8.796;2023-03-26T02:10:44;21.30;;;9.03;;
3068;SDS011;1545;51.728;8.796;2023-03-26T02:13:13;27.43;;;8.97;;
3068;SDS011;1545;51.728;8.796;2023-03-26T02:15:39;19.60;;;9.50;;
3068;SDS011;1545;51.728;8.796;2023-03-26T02:18:05;23.50;;;9.80;;
3068;SDS011;1545;51.728;8.796;2023-03-26T02:20:34;22.90;;;10.30;;
3068;SDS011;1545;51.728;8.796;2023-03-26T02:23:00;24.40;;;10.03;;
3068;SDS011;1545;51.728;8.796;2023-03-26T02:25:26;25.63;;;9.37;;
3068;SDS011;1545;51.728;8.796;2023-03-26T02:27:51;28.73;;;9.97;;
3068;SDS011;1545;51.728;8.796;2023-03-26T02:30:20;26.03;;;10.40;;
3068;SDS011;1545;51.728;8.796;2023-03-26T02:32:50;28.63;;;11.30;;
3068;SDS011;1545;51.728;8.796;2023-03-26T02:35:17;30.97;;;11.03;;
3068;SDS011;1545;51.728;8.796;2023-03-26T02:37:44;24.13;;;9.77;;
3068;SDS011;1545;51.728;8.796;2023-03-26T02:40:10;30.10;;;10.43;;
3068;SDS011;1545;51.728;8.796;2023-03-26T02:42:36;26.80;;;9.80;;
3068;SDS011;1545;51.728;8.796;2023-03-26T02:45:02;21.20;;;8.90;;
3068;SDS011;1545;51.728;8.796;2023-03-26T02:47:29;24.93;;;8.87;;
3068;SDS011;1545;51.728;8.796;2023-03-26T02:49:55;29.73;;;8.83;;
3068;SDS011;1545;51.728;8.796;2023-03-26T02:52:20;25.37;;;8.17;;
3068;SDS011;1545;51.728;8.796;2023-03-26T02:54:46;32.23;;;8.83;;
3068;SDS011;1545;51.728;8.796;2023-03-26T02:57:11;27.50;;;8.30;;
3068;SDS011;1545;51.728;8.796;2023-03-26T02:59:37;30.87;;;8.70;;
3068;SDS011;1545;51.728;8.796;2023-03-26T03:02:02;26.03;;;8.87;;
3068;SDS011;1545;51.728;8.796;2023-03-26T03:04:28;30.53;;;8.53;;
3068;SDS011;1545;51.728;8.796;2023-03-26T03:06:54;31.20;;;8.90;;
3068;SDS011;1545;51.728;8.796;2023-03-26T03:09:21;52.70;;;9.23;;
3068;SDS011;1545;51.728;8.796;2023-03-26T03:11:48;33.20;;;9.27;;
3068;SDS011;1545;51.728;8.796;2023-03-26T03:14:14;32.63;;;8.70;;
3068;SDS011;1545;51.728;8.796;2023-03-26T03:16:40;45.27;;;10.73;;
3068;SDS011;1545;51.728;8.796;2023-03-26T03:19:05;41.57;;;10.47;;
3068;SDS011;1545;51.728;8.796;2023-03-26T03:21:31;36.73;;;9.87;;
3068;SDS011;1545;51.728;8.796;2023-03-26T03:23:56;43.50;;;11.50;;
3068;SDS011;1545;51.728;8.796;2023-03-26T03:26:22;49.20;;;11.10;;
3068;SDS011;1545;51.728;8.796;2023-03-26T03:28:51;45.30;;;11.13;;
3068;SDS011;1545;51.728;8.796;2023-03-26T03:31:19;51.10;;;10.60;;
3068;SDS011;1545;51.728;8.796;2023-03-26T03:33:45;42.07;;;9.60;;
3068;SDS011;1545;51.728;8.796;2023-03-26T03:36:11;39.67;;;10.57;;
3068;SDS011;1545;51.728;8.796;2023-03-26T03:38:39;49.60;;;10.53;;
3068;SDS011;1545;51.728;8.796;2023-03-26T03:41:05;46.07;;;10.50;;
3068;SDS011;1545;51.728;8.796;2023-03-26T03:43:31;47.83;;;11.33;;
3068;SDS011;1545;51.728;8.796;2023-03-26T03:46:00;53.00;;;10.93;;
3068;SDS011;1545;51.728;8.796;2023-03-26T03:48:26;48.53;;;11.53;;
3068;SDS011;1545;51.728;8.796;2023-03-26T03:50:52;53.17;;;11.83;;
3068;SDS011;1545;51.728;8.796;2023-03-26T03:53:19;39.73;;;10.07;;
3068;SDS011;1545;51.728;8.796;2023-03-26T03:55:45;67.70;;;12.93;;
3068;SDS011;1545;51.728;8.796;2023-03-26T03:58:17;48.77;;;12.37;;
3068;SDS011;1545;51.728;8.796;2023-03-26T04:00:46;53.40;;;11.07;;
3068;SDS011;1545;51.728;8.796;2023-03-26T04:03:16;46.40;;;11.40;;
3068;SDS011;1545;51.728;8.796;2023-03-26T04:05:43;51.73;;;11.20;;
3068;SDS011;1545;51.728;8.796;2023-03-26T04:08:18;64.03;;;12.60;;
3068;SDS011;1545;51.728;8.796;2023-03-26T04:10:44;51.77;;;12.53;;
3068;SDS011;1545;51.728;8.796;2023-03-26T04:13:11;58.47;;;11.17;;
3068;SDS011;1545;51.728;8.796;2023-03-26T04:15:37;41.60;;;11.43;;
3068;SDS011;1545;51.728;8.796;2023-03-26T04:18:04;52.20;;;11.77;;
3068;SDS011;1545;51.728;8.796;2023-03-26T04:20:34;48.87;;;11.07;;
3068;SDS011;1545;51.728;8.796;2023-03-26T04:23:05;37.80;;;10.40;;
3068;SDS011;1545;51.728;8.796;2023-03-26T04:25:32;44.03;;;11.10;;
3068;SDS011;1545;51.728;8.796;2023-03-26T04:28:00;46.97;;;11.60;;
3068;SDS011;1545;51.728;8.796;2023-03-26T04:30:30;38.97;;;11.27;;
3068;SDS011;1545;51.728;8.796;2023-03-26T04:32:57;50.13;;;11.73;;
3068;SDS011;1545;51.728;8.796;2023-03-26T04:35:28;56.07;;;11.43;;
3068;SDS011;1545;51.728;8.796;2023-03-26T04:37:58;43.73;;;11.77;;
3068;SDS011;1545;51.728;8.796;2023-03-26T04:40:25;34.70;;;11.87;;
3068;SDS011;1545;51.728;8.796;2023-03-26T04:42:50;50.67;;;12.80;;
3068;SDS011;1545;51.728;8.796;2023-03-26T04:45:22;46.90;;;12.10;;
3068;SDS011;1545;51.728;8.796;2023-03-26T04:47:48;52.47;;;13.20;;
3068;SDS011;1545;51.728;8.796;2023-03-26T04:50:14;55.83;;;12.80;;
3068;SDS011;1545;51.728;8.796;2023-03-26T04:52:40;48.90;;;11.83;;
3068;SDS011;1545;51.728;8.796;2023-03-26T04:55:11;45.13;;;12.30;;
3068;SDS011;1545;51.728;8.796;2023-03-26T04:57:44;57.27;;;12.80;;
3068;SDS011;1545;51.728;8.796;2023-03-26T05:00:16;56.87;;;12.97;;
3068;SDS011;1545;51.728;8.796;2023-03-26T05:02:44;51.80;;;12.40;;
3068;SDS011;1545;51.728;8.796;2023-03-26T05:05:13;51.33;;;12.00;;
3068;SDS011;1545;51.728;8.796;2023-03-26T05:07:39;43.87;;;11.70;;
3068;SDS011;1545;51.728;8.796;2023-03-26T05:10:06;57.40;;;12.90;;
3068;SDS011;1545;51.728;8.796;2023-03-26T05:12:32;53.90;;;11.97;;
3068;SDS011;1545;51.728;8.796;2023-03-26T05:14:58;43.77;;;12.23;;
3068;SDS011;1545;51.728;8.796;2023-03-26T05:17:24;52.53;;;12.67;;
3068;SDS011;1545;51.728;8.796;2023-03-26T05:19:50;46.90;;;11.63;;
3068;SDS011;1545;51.728;8.796;2023-03-26T05:22:16;56.43;;;13.50;;
3068;SDS011;1545;51.728;8.796;2023-03-26T05:24:42;54.17;;;12.23;;
3068;SDS011;1545;51.728;8.796;2023-03-26T05:27:12;44.03;;;11.73;;
3068;SDS011;1545;51.728;8.796;2023-03-26T05:29:38;51.83;;;11.80;;
3068;SDS011;1545;51.728;8.796;2023-03-26T05:32:05;43.20;;;11.80;;
3068;SDS011;1545;51.728;8.796;2023-03-26T05:34:31;62.77;;;11.97;;
3068;SDS011;1545;51.728;8.796;2023-03-26T05:36:56;55.47;;;13.53;;
3068;SDS011;1545;51.728;8.796;2023-03-26T05:39:22;51.50;;;11.27;;
3068;SDS011;1545;51.728;8.796;2023-03-26T05:41:50;55.97;;;11.90;;
3068;SDS011;1545;51.728;8.796;2023-03-26T05:44:16;51.97;;;11.77;;
3068;SDS011;1545;51.728;8.796;2023-03-26T05:46:42;53.73;;;12.10;;
3068;SDS011;1545;51.728;8.796;2023-03-26T05:49:07;50.67;;;11.80;;
3068;SDS011;1545;51.728;8.796;2023-03-26T05:51:33;42.33;;;11.37;;
3068;SDS011;1545;51.728;8.796;2023-03-26T05:53:58;61.53;;;13.27;;
3068;SDS011;1545;51.728;8.796;2023-03-26T05:56:24;51.93;;;11.87;;
3068;SDS011;1545;51.728;8.796;2023-03-26T05:58:49;56.50;;;12.10;;
3068;SDS011;1545;51.728;8.796;2023-03-26T06:01:15;51.87;;;11.37;;
3068;SDS011;1545;51.728;8.796;2023-03-26T06:03:42;45.87;;;12.40;;
3068;SDS011;1545;51.728;8.796;2023-03-26T06:06:10;46.00;;;11.73;;
3068;SDS011;1545;51.728;8.796;2023-03-26T06:08:43;41.93;;;11.73;;
3068;SDS011;1545;51.728;8.796;2023-03-26T06:11:13;43.03;;;12.00;;
3068;SDS011;1545;51.728;8.796;2023-03-26T06:13:39;55.87;;;11.57;;
3068;SDS011;1545;51.728;8.796;2023-03-26T06:16:05;44.60;;;12.17;;
3068;SDS011;1545;51.728;8.796;2023-03-26T06:18:31;61.50;;;12.27;;
3068;SDS011;1545;51.728;8.796;2023-03-26T06:20:57;41.47;;;11.20;;
3068;SDS011;1545;51.728;8.796;2023-03-26T06:23:23;47.73;;;12.00;;
3068;SDS011;1545;51.728;8.796;2023-03-26T06:25:48;46.30;;;10.70;;
3068;SDS011;1545;51.728;8.796;2023-03-26T06:28:14;55.77;;;11.30;;
3068;SDS011;1545;51.728;8.796;2023-03-26T06:30:40;40.13;;;10.37;;
3068;SDS011;1545;51.728;8.796;2023-03-26T06:33:05;49.73;;;10.53;;
3068;SDS011;1545;51.728;8.796;2023-03-26T06:35:31;46.67;;;11.30;;
3068;SDS011;1545;51.728;8.796;2023-03-26T06:37:57;40.37;;;10.77;;
3068;SDS011;1545;51.728;8.796;2023-03-26T06:40:23;44.27;;;10.53;;
3068;SDS011;1545;51.728;8.796;2023-03-26T06:42:49;35.90;;;9.93;;
3068;SDS011;1545;51.728;8.796;2023-03-26T06:45:14;42.20;;;10.33;;
3068;SDS011;1545;51.728;8.796;2023-03-26T06:47:40;48.20;;;10.60;;
3068;SDS011;1545;51.728;8.796;2023-03-26T06:50:06;46.93;;;10.27;;
3068;SDS011;1545;51.728;8.796;2023-03-26T06:52:32;39.27;;;10.67;;
3068;SDS011;1545;51.728;8.796;2023-03-26T06:54:58;42.67;;;11.10;;
3068;SDS011;1545;51.728;8.796;2023-03-26T06:57:23;52.60;;;11.30;;
3068;SDS011;1545;51.728;8.796;2023-03-26T06:59:49;39.93;;;10.27;;
3068;SDS011;1545;51.728;8.796;2023-03-26T07:02:14;45.67;;;10.73;;
3068;SDS011;1545;51.728;8.796;2023-03-26T07:04:40;42.47;;;10.33;;
3068;SDS011;1545;51.728;8.796;2023-03-26T07:07:05;45.13;;;11.70;;
3068;SDS011;1545;51.728;8.796;2023-03-26T07:09:31;49.23;;;10.77;;
3068;SDS011;1545;51.728;8.796;2023-03-26T07:11:57;47.47;;;10.87;;
3068;SDS011;1545;51.728;8.796;2023-03-26T07:14:23;49.70;;;11.47;;
3068;SDS011;1545;51.728;8.796;2023-03-26T07:16:49;36.73;;;11.03;;
3068;SDS011;1545;51.728;8.796;2023-03-26T07:19:15;42.20;;;11.33;;
3068;SDS011;1545;51.728;8.796;2023-03-26T07:21:41;42.83;;;12.27;;
3068;SDS011;1545;51.728;8.796;2023-03-26T07:24:10;43.50;;;10.87;;
3068;SDS011;1545;51.728;8.796;2023-03-26T07:26:40;42.17;;;11.40;;
3068;SDS011;1545;51.728;8.796;2023-03-26T07:29:27;43.70;;;11.37;;
3068;SDS011;1545;51.728;8.796;2023-03-26T07:32:02;45.30;;;11.73;;
3068;SDS011;1545;51.728;8.796;2023-03-26T07:34:50;47.87;;;10.90;;
3068;SDS011;1545;51.728;8.796;2023-03-26T07:42:29;46.70;;;11.30;;
3068;SDS011;1545;51.728;8.796;2023-03-26T07:47:44;59.30;;;11.83;;
3068;SDS011;1545;51.728;8.796;2023-03-26T07:50:14;42.73;;;10.03;;
3068;SDS011;1545;51.728;8.796;2023-03-26T07:52:41;46.53;;;11.47;;
3068;SDS011;1545;51.728;8.796;2023-03-26T07:55:10;35.47;;;10.90;;
3068;SDS011;1545;51.728;8.796;2023-03-26T08:00:36;45.00;;;10.97;;
3068;SDS011;1545;51.728;8.796;2023-03-26T08:06:06;44.90;;;11.67;;
3068;SDS011;1545;51.728;8.796;2023-03-26T08:08:57;49.43;;;12.27;;
3068;SDS011;1545;51.728;8.796;2023-03-26T08:11:45;45.97;;;11.67;;
3068;SDS011;1545;51.728;8.796;2023-03-26T08:14:20;42.20;;;11.43;;
3068;SDS011;1545;51.728;8.796;2023-03-26T08:19:55;31.97;;;9.73;;
3068;SDS011;1545;51.728;8.796;2023-03-26T08:22:35;25.10;;;7.10;;
3068;SDS011;1545;51.728;8.796;2023-03-26T08:25:12;31.50;;;9.13;;
3068;SDS011;1545;51.728;8.796;2023-03-26T08:30:38;27.83;;;8.00;;
3068;SDS011;1545;51.728;8.796;2023-03-26T08:35:35;31.40;;;8.43;;
3068;SDS011;1545;51.728;8.796;2023-03-26T08:38:06;21.50;;;6.97;;
3068;SDS011;1545;51.728;8.796;2023-03-26T08:54:40;27.90;;;7.03;;
3068;SDS011;1545;51.728;8.796;2023-03-26T09:02:29;30.23;;;7.00;;
3068;SDS011;1545;51.728;8.796;2023-03-26T09:08:17;28.10;;;6.47;;
3068;SDS011;1545;51.728;8.796;2023-03-26T09:13:41;24.33;;;7.23;;
3068;SDS011;1545;51.728;8.796;2023-03-26T09:24:34;27.17;;;6.43;;
3068;SDS011;1545;51.728;8.796;2023-03-26T09:36:07;23.00;;;6.13;;
3068;SDS011;1545;51.728;8.796;2023-03-26T09:38:44;29.80;;;6.73;;
3068;SDS011;1545;51.728;8.796;2023-03-26T09:47:45;24.63;;;6.10;;
3068;SDS011;1545;51.728;8.796;2023-03-26T09:50:22;25.63;;;6.63;;
3068;SDS011;1545;51.728;8.796;2023-03-26T09:53:16;29.37;;;6.30;;
3068;SDS011;1545;51.728;8.796;2023-03-26T10:12:38;18.50;;;6.97;;
3068;SDS011;1545;51.728;8.796;2023-03-26T10:23:31;26.97;;;9.30;;
3068;SDS011;1545;51.728;8.796;2023-03-26T10:29:28;21.63;;;8.40;;
3068;SDS011;1545;51.728;8.796;2023-03-26T10:32:21;29.33;;;7.87;;
3068;SDS011;1545;51.728;8.796;2023-03-26T10:35:24;27.87;;;8.73;;
3068;SDS011;1545;51.728;8.796;2023-03-26T10:40:53;27.80;;;8.93;;
3068;SDS011;1545;51.728;8.796;2023-03-26T10:46:43;36.37;;;9.77;;
3068;SDS011;1545;51.728;8.796;2023-03-26T10:49:46;27.30;;;9.40;;
3068;SDS011;1545;51.728;8.796;2023-03-26T10:52:26;29.30;;;9.63;;
3068;SDS011;1545;51.728;8.796;2023-03-26T10:55:21;33.73;;;11.20;;
3068;SDS011;1545;51.728;8.796;2023-03-26T10:58:33;32.23;;;10.90;;
3068;SDS011;1545;51.728;8.796;2023-03-26T11:01:03;30.60;;;11.07;;
3068;SDS011;1545;51.728;8.796;2023-03-26T11:03:45;31.27;;;11.43;;
3068;SDS011;1545;51.728;8.796;2023-03-26T11:16:53;21.73;;;6.17;;
3068;SDS011;1545;51.728;8.796;2023-03-26T11:22:39;12.63;;;3.60;;
3068;SDS011;1545;51.728;8.796;2023-03-26T11:25:33;12.63;;;3.53;;
3068;SDS011;1545;51.728;8.796;2023-03-26T11:28:29;10.50;;;3.63;;
3068;SDS011;1545;51.728;8.796;2023-03-26T11:31:13;14.70;;;3.93;;
3068;SDS011;1545;51.728;8.796;2023-03-26T11:33:43;13.93;;;3.80;;
3068;SDS011;1545;51.728;8.796;2023-03-26T11:36:12;16.97;;;4.10;;
3068;SDS011;1545;51.728;8.796;2023-03-26T11:38:46;11.20;;;3.97;;
3068;SDS011;1545;51.728;8.796;2023-03-26T11:43:44;14.73;;;3.90;;
3068;SDS011;1545;51.728;8.796;2023-03-26T11:46:16;12.43;;;4.80;;
3068;SDS011;1545;51.728;8.796;2023-03-26T11:48:45;11.27;;;4.20;;
3068;SDS011;1545;51.728;8.796;2023-03-26T11:51:24;16.33;;;4.13;;
3068;SDS011;1545;51.728;8.796;2023-03-26T11:53:51;9.73;;;3.80;;
3068;SDS011;1545;51.728;8.796;2023-03-26T12:01:47;13.37;;;4.50;;
3068;SDS011;1545;51.728;8.796;2023-03-26T12:04:27;15.80;;;5.60;;
3068;SDS011;1545;51.728;8.796;2023-03-26T12:09:57;19.33;;;6.23;;
3068;SDS011;1545;51.728;8.796;2023-03-26T12:12:31;15.83;;;5.90;;
3068;SDS011;1545;51.728;8.796;2023-03-26T12:15:00;20.70;;;6.10;;
3068;SDS011;1545;51.728;8.796;2023-03-26T12:19:55;16.50;;;5.83;;
3068;SDS011;1545;51.728;8.796;2023-03-26T12:27:51;19.73;;;7.30;;
3068;SDS011;1545;51.728;8.796;2023-03-26T12:30:36;23.30;;;7.70;;
3068;SDS011;1545;51.728;8.796;2023-03-26T12:33:04;20.57;;;5.90;;
3068;SDS011;1545;51.728;8.796;2023-03-26T12:35:33;16.53;;;4.13;;
3068;SDS011;1545;51.728;8.796;2023-03-26T12:38:22;9.60;;;3.50;;
3068;SDS011;1545;51.728;8.796;2023-03-26T12:40:47;6.50;;;2.57;;
3068;SDS011;1545;51.728;8.796;2023-03-26T12:48:58;4.33;;;2.20;;
3068;SDS011;1545;51.728;8.796;2023-03-26T12:56:43;6.13;;;2.47;;
3068;SDS011;1545;51.728;8.796;2023-03-26T12:59:22;19.33;;;3.63;;
3068;SDS011;1545;51.728;8.796;2023-03-26T13:13:31;7.27;;;2.77;;
3068;SDS011;1545;51.728;8.796;2023-03-26T13:16:02;8.17;;;2.93;;
3068;SDS011;1545;51.728;8.796;2023-03-26T13:18:51;5.03;;;2.07;;
3068;SDS011;1545;51.728;8.796;2023-03-26T13:21:27;5.73;;;1.93;;
3068;SDS011;1545;51.728;8.796;2023-03-26T13:26:55;5.97;;;2.20;;
3068;SDS011;1545;51.728;8.796;2023-03-26T13:32:11;3.93;;;1.93;;
3068;SDS011;1545;51.728;8.796;2023-03-26T13:34:58;3.33;;;1.60;;
3068;SDS011;1545;51.728;8.796;2023-03-26T13:40:21;3.73;;;1.57;;
3068;SDS011;1545;51.728;8.796;2023-03-26T13:43:09;4.40;;;1.70;;
3068;SDS011;1545;51.728;8.796;2023-03-26T13:48:12;5.60;;;1.70;;
3068;SDS011;1545;51.728;8.796;2023-03-26T13:50:43;7.60;;;1.50;;
3068;SDS011;1545;51.728;8.796;2023-03-26T13:53:20;1.73;;;1.50;;
3068;SDS011;1545;51.728;8.796;2023-03-26T13:55:52;4.13;;;1.67;;
3068;SDS011;1545;51.728;8.796;2023-03-26T13:58:22;4.00;;;1.80;;
3068;SDS011;1545;51.728;8.796;2023-03-26T14:01:08;4.77;;;1.73;;
3068;SDS011;1545;51.728;8.796;2023-03-26T14:14:33;1.67;;;1.30;;
3068;SDS011;1545;51.728;8.796;2023-03-26T14:20:09;1.30;;;1.20;;
3068;SDS011;1545;51.728;8.796;2023-03-26T14:23:01;2.10;;;1.03;;
3068;SDS011;1545;51.728;8.796;2023-03-26T14:25:41;3.83;;;1.10;;
3068;SDS011;1545;51.728;8.796;2023-03-26T14:28:27;4.93;;;1.20;;
3068;SDS011;1545;51.728;8.796;2023-03-26T14:31:09;2.30;;;1.20;;
3068;SDS011;1545;51.728;8.796;2023-03-26T14:34:15;2.03;;;1.23;;
3068;SDS011;1545;51.728;8.796;2023-03-26T14:42:35;0.90;;;0.80;;
3068;SDS011;1545;51.728;8.796;2023-03-26T14:53:31;3.13;;;1.67;;
3068;SDS011;1545;51.728;8.796;2023-03-26T14:56:13;1.10;;;1.00;;
3068;SDS011;1545;51.728;8.796;2023-03-26T15:10:37;4.70;;;2.37;;
3068;SDS011;1545;51.728;8.796;2023-03-26T15:13:23;3.63;;;2.30;;
3068;SDS011;1545;51.728;8.796;2023-03-26T15:21:39;4.17;;;2.13;;
3068;SDS011;1545;51.728;8.796;2023-03-26T15:33:44;3.63;;;1.60;;
3068;SDS011;1545;51.728;8.796;2023-03-26T15:39:39;4.40;;;2.07;;
3068;SDS011;1545;51.728;8.796;2023-03-26T15:42:24;4.67;;;2.43;;
3068;SDS011;1545;51.728;8.796;2023-03-26T15:45:12;4.50;;;2.40;;
3068;SDS011;1545;51.728;8.796;2023-03-26T15:47:52;5.57;;;3.00;;
3068;SDS011;1545;51.728;8.796;2023-03-26T15:55:59;4.53;;;1.90;;
3068;SDS011;1545;51.728;8.796;2023-03-26T16:01:33;4.37;;;1.87;;
3068;SDS011;1545;51.728;8.796;2023-03-26T16:04:34;5.20;;;2.27;;
3068;SDS011;1545;51.728;8.796;2023-03-26T16:07:29;8.13;;;2.53;;
3068;SDS011;1545;51.728;8.796;2023-03-26T16:26:13;7.43;;;3.73;;
3068;SDS011;1545;51.728;8.796;2023-03-26T16:33:38;9.57;;;4.30;;
3068;SDS011;1545;51.728;8.796;2023-03-26T16:41:27;11.80;;;6.03;;
3068;SDS011;1545;51.728;8.796;2023-03-26T16:57:51;45.10;;;17.07;;
3068;SDS011;1545;51.728;8.796;2023-03-26T17:00:33;42.30;;;17.17;;
3068;SDS011;1545;51.728;8.796;2023-03-26T17:03:23;37.23;;;18.33;;
3068;SDS011;1545;51.728;8.796;2023-03-26T17:11:49;44.30;;;18.93;;
3068;SDS011;1545;51.728;8.796;2023-03-26T17:14:30;56.80;;;20.13;;
3068;SDS011;1545;51.728;8.796;2023-03-26T17:17:30;49.83;;;19.60;;
3068;SDS011;1545;51.728;8.796;2023-03-26T17:28:27;42.57;;;18.27;;
3068;SDS011;1545;51.728;8.796;2023-03-26T17:31:17;46.07;;;17.60;;
3068;SDS011;1545;51.728;8.796;2023-03-26T17:36:58;48.03;;;16.90;;
3068;SDS011;1545;51.728;8.796;2023-03-26T17:44:56;45.57;;;17.47;;
3068;SDS011;1545;51.728;8.796;2023-03-26T17:47:44;45.77;;;17.00;;
3068;SDS011;1545;51.728;8.796;2023-03-26T17:50:18;53.57;;;23.10;;
3068;SDS011;1545;51.728;8.796;2023-03-26T17:52:58;42.37;;;16.47;;
3068;SDS011;1545;51.728;8.796;2023-03-26T17:55:27;35.60;;;16.50;;
3068;SDS011;1545;51.728;8.796;2023-03-26T17:57:59;39.60;;;17.67;;
3068;SDS011;1545;51.728;8.796;2023-03-26T18:00:28;35.03;;;17.03;;
3068;SDS011;1545;51.728;8.796;2023-03-26T18:03:23;43.50;;;17.50;;
3068;SDS011;1545;51.728;8.796;2023-03-26T18:05:56;47.67;;;16.53;;
3068;SDS011;1545;51.728;8.796;2023-03-26T18:08:40;51.67;;;15.63;;
3068;SDS011;1545;51.728;8.796;2023-03-26T18:14:28;48.33;;;16.20;;
3068;SDS011;1545;51.728;8.796;2023-03-26T18:16:57;54.33;;;16.80;;
3068;SDS011;1545;51.728;8.796;2023-03-26T18:19:24;45.47;;;14.67;;
3068;SDS011;1545;51.728;8.796;2023-03-26T18:21:51;40.73;;;14.27;;
3068;SDS011;1545;51.728;8.796;2023-03-26T18:24:20;61.37;;;15.27;;
3068;SDS011;1545;51.728;8.796;2023-03-26T18:27:02;54.73;;;14.70;;
3068;SDS011;1545;51.728;8.796;2023-03-26T18:29:34;42.83;;;14.00;;
3068;SDS011;1545;51.728;8.796;2023-03-26T18:32:02;37.97;;;13.57;;
3068;SDS011;1545;51.728;8.796;2023-03-26T18:34:33;36.60;;;14.10;;
3068;SDS011;1545;51.728;8.796;2023-03-26T18:37:10;49.60;;;14.93;;
3068;SDS011;1545;51.728;8.796;2023-03-26T18:39:39;38.57;;;15.33;;
3068;SDS011;1545;51.728;8.796;2023-03-26T18:42:09;50.43;;;13.97;;
3068;SDS011;1545;51.728;8.796;2023-03-26T18:44:44;42.37;;;15.77;;
3068;SDS011;1545;51.728;8.796;2023-03-26T18:47:13;53.07;;;15.77;;
3068;SDS011;1545;51.728;8.796;2023-03-26T18:49:40;49.13;;;16.03;;
3068;SDS011;1545;51.728;8.796;2023-03-26T18:52:15;45.03;;;15.87;;
3068;SDS011;1545;51.728;8.796;2023-03-26T18:54:42;44.70;;;15.27;;
3068;SDS011;1545;51.728;8.796;2023-03-26T18:57:18;41.37;;;15.20;;
3068;SDS011;1545;51.728;8.796;2023-03-26T18:59:49;46.50;;;14.23;;
3068;SDS011;1545;51.728;8.796;2023-03-26T19:02:16;37.10;;;12.33;;
3068;SDS011;1545;51.728;8.796;2023-03-26T19:04:43;39.70;;;12.67;;
3068;SDS011;1545;51.728;8.796;2023-03-26T19:07:17;32.07;;;11.23;;
3068;SDS011;1545;51.728;8.796;2023-03-26T19:09:48;36.13;;;10.43;;
3068;SDS011;1545;51.728;8.796;2023-03-26T19:12:18;49.40;;;9.90;;
3068;SDS011;1545;51.728;8.796;2023-03-26T19:14:56;37.87;;;10.17;;
3068;SDS011;1545;51.728;8.796;2023-03-26T19:17:22;32.43;;;7.90;;
3068;SDS011;1545;51.728;8.796;2023-03-26T19:19:51;34.77;;;7.60;;
3068;SDS011;1545;51.728;8.796;2023-03-26T19:22:19;40.83;;;6.43;;
3068;SDS011;1545;51.728;8.796;2023-03-26T19:24:46;27.63;;;7.27;;
3068;SDS011;1545;51.728;8.796;2023-03-26T19:27:13;39.37;;;7.00;;
3068;SDS011;1545;51.728;8.796;2023-03-26T19:29:39;31.33;;;7.03;;
3068;SDS011;1545;51.728;8.796;2023-03-26T19:32:20;33.93;;;5.20;;
3068;SDS011;1545;51.728;8.796;2023-03-26T19:34:53;29.00;;;5.70;;
3068;SDS011;1545;51.728;8.796;2023-03-26T19:37:19;22.50;;;4.97;;
3068;SDS011;1545;51.728;8.796;2023-03-26T19:39:49;25.57;;;5.80;;
3068;SDS011;1545;51.728;8.796;2023-03-26T19:42:25;35.83;;;6.23;;
3068;SDS011;1545;51.728;8.796;2023-03-26T19:44:55;28.20;;;5.77;;
3068;SDS011;1545;51.728;8.796;2023-03-26T19:47:30;33.27;;;6.33;;
3068;SDS011;1545;51.728;8.796;2023-03-26T19:50:21;25.10;;;5.53;;
3068;SDS011;1545;51.728;8.796;2023-03-26T19:53:12;29.67;;;5.53;;
3068;SDS011;1545;51.728;8.796;2023-03-26T19:58:39;29.60;;;6.60;;
3068;SDS011;1545;51.728;8.796;2023-03-26T20:01:05;30.27;;;5.53;;
3068;SDS011;1545;51.728;8.796;2023-03-26T20:03:38;31.93;;;5.73;;
3068;SDS011;1545;51.728;8.796;2023-03-26T20:06:09;26.77;;;4.93;;
3068;SDS011;1545;51.728;8.796;2023-03-26T20:08:36;29.57;;;5.33;;
3068;SDS011;1545;51.728;8.796;2023-03-26T20:11:04;30.97;;;5.40;;
3068;SDS011;1545;51.728;8.796;2023-03-26T20:13:33;22.67;;;4.60;;
3068;SDS011;1545;51.728;8.796;2023-03-26T20:16:04;26.50;;;5.27;;
3068;SDS011;1545;51.728;8.796;2023-03-26T20:18:34;25.67;;;5.30;;
3068;SDS011;1545;51.728;8.796;2023-03-26T20:21:00;20.07;;;5.43;;
3068;SDS011;1545;51.728;8.796;2023-03-26T20:23:32;20.47;;;5.13;;
3068;SDS011;1545;51.728;8.796;2023-03-26T20:25:58;29.37;;;5.23;;
3068;SDS011;1545;51.728;8.796;2023-03-26T20:28:23;26.97;;;5.83;;
3068;SDS011;1545;51.728;8.796;2023-03-26T20:30:49;31.33;;;5.83;;
3068;SDS011;1545;51.728;8.796;2023-03-26T20:33:16;25.77;;;4.53;;
3068;SDS011;1545;51.728;8.796;2023-03-26T20:35:44;27.83;;;6.10;;
3068;SDS011;1545;51.728;8.796;2023-03-26T20:38:10;32.50;;;5.23;;
3068;SDS011;1545;51.728;8.796;2023-03-26T20:40:36;16.17;;;4.10;;
3068;SDS011;1545;51.728;8.796;2023-03-26T20:43:03;22.97;;;4.13;;